Time;durP1;ratioP1;P1;durP2;ratioP2;P2;SDS_P1;SDS_P2;PMS_P1;PMS_P2;Temp;Humidity;BMP_temperature;BMP_pressure;BME280_temperature;BME280_humidity;BME280_pressure;Samples;Min_cycle;Max_cycle;Signal;HPM_P1;HPM_P2
2022/10/07 00:01:06;;;;;;;0.10;0.10;;;8.60;99.90;;;;;;5050679;28;20582;-75
2022/10/07 00:03:34;;;;;;;0.10;0.10;;;8.50;99.90;;;;;;5050924;28;20268;-74
2022/10/07 00:06:06;;;;;;;0.10;0.10;;;8.50;99.90;;;;;;5050537;28;20210;-74
2022/10/07 00:08:35;;;;;;;0.10;0.10;;;8.50;99.90;;;;;;5050117;28;20218;-74
2022/10/07 00:11:06;;;;;;;0.10;0.10;;;8.50;99.90;;;;;;5051043;28;20194;-74
2022/10/07 00:13:35;;;;;;;0.10;0.10;;;8.70;99.90;;;;;;5054158;28;20206;-74
2022/10/07 00:16:06;;;;;;;0.10;0.10;;;8.80;99.90;;;;;;5044510;28;20205;-74
2022/10/07 00:18:36;;;;;;;0.10;0.10;;;8.70;99.90;;;;;;5045805;28;20234;-74
2022/10/07 00:21:05;;;;;;;0.10;0.10;;;8.80;99.90;;;;;;5045405;28;20207;-76
2022/10/07 00:23:35;;;;;;;0.10;0.10;;;8.80;99.90;;;;;;5043588;28;20550;-76
2022/10/07 00:26:05;;;;;;;0.10;0.10;;;8.80;99.90;;;;;;5042477;28;20210;-77
2022/10/07 00:28:34;;;;;;;0.10;0.10;;;8.70;99.90;;;;;;5055086;28;20213;-76
2022/10/07 00:31:05;;;;;;;0.10;0.10;;;8.60;99.90;;;;;;5054109;28;20281;-76
2022/10/07 00:33:36;;;;;;;0.10;0.10;;;8.50;99.90;;;;;;5041578;28;20772;-76
2022/10/07 00:36:07;;;;;;;0.10;0.10;;;8.50;99.90;;;;;;5044333;28;20202;-76
2022/10/07 00:38:35;;;;;;;0.10;0.10;;;8.50;99.90;;;;;;5054755;28;20198;-76
2022/10/07 00:41:03;;;;;;;0.10;0.10;;;8.50;99.90;;;;;;5053104;28;20217;-76
2022/10/07 00:43:32;;;;;;;0.10;0.10;;;8.60;99.90;;;;;;5045982;28;20646;-75
2022/10/07 00:46:05;;;;;;;0.10;0.10;;;8.50;99.90;;;;;;5053497;28;20252;-76
2022/10/07 00:48:35;;;;;;;0.10;0.10;;;8.50;99.90;;;;;;5053581;28;20275;-76
2022/10/07 00:51:04;;;;;;;0.10;0.10;;;8.40;99.90;;;;;;5052885;28;20727;-76
2022/10/07 00:53:35;;;;;;;0.10;0.10;;;8.40;99.90;;;;;;5053140;28;20218;-76
2022/10/07 00:56:06;;;;;;;0.10;0.10;;;8.50;99.90;;;;;;5053295;28;20202;-75
2022/10/07 00:58:37;;;;;;;0.10;0.10;;;8.40;99.90;;;;;;5052209;28;20202;-74
2022/10/07 01:01:06;;;;;;;0.10;0.10;;;8.40;99.90;;;;;;5052348;28;20208;-75
2022/10/07 01:03:36;;;;;;;0.00;0.00;;;8.30;99.90;;;;;;5053984;28;20806;-77
2022/10/07 01:06:05;;;;;;;0.10;0.10;;;8.10;99.90;;;;;;5059131;28;20209;-75
2022/10/07 01:08:33;;;;;;;0.10;0.10;;;8.10;99.90;;;;;;5061010;28;20222;-77
2022/10/07 01:11:13;;;;;;;0.10;0.10;;;8.10;99.90;;;;;;5060460;28;20202;-77
2022/10/07 01:13:53;;;;;;;0.10;0.10;;;8.10;99.90;;;;;;5070739;28;20288;-78
2022/10/07 01:16:29;;;;;;;0.10;0.10;;;8.10;99.90;;;;;;5039259;28;20622;-77
2022/10/07 01:19:09;;;;;;;0.10;0.10;;;8.10;99.90;;;;;;5045346;28;20204;-78
2022/10/07 01:21:47;;;;;;;0.10;0.10;;;8.10;99.90;;;;;;5052143;28;20218;-75
2022/10/07 01:24:32;;;;;;;0.10;0.10;;;8.00;99.90;;;;;;5051686;28;20214;-76
2022/10/07 01:27:05;;;;;;;0.00;0.00;;;7.90;99.90;;;;;;5051672;28;20241;-75
2022/10/07 01:29:36;;;;;;;0.10;0.10;;;8.10;99.90;;;;;;5051548;28;20256;-74
2022/10/07 01:32:09;;;;;;;0.10;0.10;;;8.10;99.90;;;;;;5041371;28;20214;-75
2022/10/07 01:34:38;;;;;;;0.10;0.10;;;8.00;99.90;;;;;;5040713;28;20201;-75
2022/10/07 01:37:13;;;;;;;0.10;0.10;;;8.00;99.90;;;;;;5047513;28;20196;-74
2022/10/07 01:39:46;;;;;;;0.10;0.10;;;7.90;99.90;;;;;;5051003;28;20202;-75
2022/10/07 01:42:16;;;;;;;0.10;0.10;;;7.70;99.90;;;;;;5051973;28;20210;-75
2022/10/07 01:44:47;;;;;;;0.10;0.10;;;7.60;99.90;;;;;;5051305;28;20680;-76
2022/10/07 01:47:16;;;;;;;0.10;0.10;;;7.70;99.90;;;;;;5051249;28;20212;-76
2022/10/07 01:49:45;;;;;;;0.10;0.10;;;7.70;99.90;;;;;;5049195;28;20285;-77
2022/10/07 01:52:27;;;;;;;0.10;0.10;;;7.70;99.90;;;;;;5045718;28;20254;-77
2022/10/07 01:55:30;;;;;;;0.10;0.10;;;7.70;99.90;;;;;;5050000;28;20210;-76
2022/10/07 01:58:11;;;;;;;0.10;0.10;;;7.70;99.90;;;;;;5046594;28;20267;-76
2022/10/07 02:00:45;;;;;;;0.10;0.10;;;7.70;99.90;;;;;;5050932;28;20213;-76
2022/10/07 02:03:31;;;;;;;0.10;0.10;;;7.70;99.90;;;;;;5051674;28;20220;-76
2022/10/07 02:06:06;;;;;;;0.10;0.10;;;7.80;99.90;;;;;;5042259;28;20284;-76
2022/10/07 02:08:40;;;;;;;0.10;0.10;;;7.70;99.90;;;;;;5051755;28;20206;-76
2022/10/07 02:11:15;;;;;;;0.10;0.10;;;7.80;99.90;;;;;;5051591;28;20255;-77
2022/10/07 02:13:56;;;;;;;0.10;0.10;;;7.80;99.90;;;;;;5050654;28;20197;-77
2022/10/07 02:16:33;;;;;;;0.10;0.10;;;7.80;99.90;;;;;;5050230;28;20229;-77
2022/10/07 02:19:06;;;;;;;0.10;0.10;;;7.60;99.90;;;;;;5042761;28;20198;-76
2022/10/07 02:21:37;;;;;;;0.10;0.10;;;7.40;99.90;;;;;;5051740;28;20260;-76
2022/10/07 02:24:08;;;;;;;0.10;0.10;;;7.30;99.90;;;;;;5050542;28;20202;-76
2022/10/07 02:26:40;;;;;;;0.10;0.10;;;7.30;99.90;;;;;;5050034;28;20240;-76
2022/10/07 02:29:12;;;;;;;0.10;0.10;;;7.40;99.90;;;;;;5050360;28;20206;-76
2022/10/07 02:31:43;;;;;;;0.10;0.10;;;7.50;99.90;;;;;;5050216;28;20313;-77
2022/10/07 02:34:15;;;;;;;0.10;0.10;;;7.20;99.90;;;;;;5049576;28;20206;-75
2022/10/07 02:36:51;;;;;;;0.10;0.10;;;7.30;99.90;;;;;;5050382;28;20571;-75
2022/10/07 02:39:19;;;;;;;0.10;0.10;;;7.20;99.90;;;;;;5049061;28;20681;-75
2022/10/07 02:41:58;;;;;;;0.10;0.10;;;7.20;99.90;;;;;;5049851;28;20219;-76
2022/10/07 02:44:33;;;;;;;0.10;0.10;;;7.20;99.90;;;;;;5050172;28;20214;-76
2022/10/07 02:47:06;;;;;;;0.10;0.10;;;7.20;99.90;;;;;;5042546;28;20198;-77
2022/10/07 02:49:39;;;;;;;0.10;0.10;;;7.00;99.90;;;;;;5049712;28;20268;-77
2022/10/07 02:52:10;;;;;;;0.10;0.10;;;7.10;99.90;;;;;;5051358;28;20214;-75
2022/10/07 02:54:42;;;;;;;0.10;0.10;;;7.20;99.90;;;;;;5050022;28;20202;-76
2022/10/07 02:57:14;;;;;;;0.10;0.10;;;7.10;99.90;;;;;;5050221;28;20624;-75
2022/10/07 02:59:46;;;;;;;0.10;0.10;;;6.80;99.90;;;;;;5051220;28;20278;-75
2022/10/07 03:02:21;;;;;;;0.10;0.10;;;6.70;99.90;;;;;;5049601;28;20241;-75
2022/10/07 03:04:49;;;;;;;0.10;0.10;;;6.60;99.90;;;;;;5042269;28;20761;-75
2022/10/07 03:07:17;;;;;;;0.10;0.10;;;6.50;99.90;;;;;;5041340;28;20199;-75
2022/10/07 03:09:45;;;;;;;0.10;0.10;;;6.60;99.90;;;;;;5061091;28;20248;-74
2022/10/07 03:12:13;;;;;;;0.10;0.10;;;6.70;99.90;;;;;;5057273;28;20223;-75
2022/10/07 03:14:43;;;;;;;0.10;0.10;;;6.80;99.90;;;;;;5064014;28;20201;-74
2022/10/07 03:17:11;;;;;;;0.10;0.10;;;6.70;99.90;;;;;;5057667;28;20221;-75
2022/10/07 03:19:40;;;;;;;0.10;0.10;;;6.80;99.90;;;;;;5059284;28;20211;-75
2022/10/07 03:22:08;;;;;;;0.10;0.10;;;6.90;99.90;;;;;;5049356;28;20230;-73
2022/10/07 03:24:39;;;;;;;0.10;0.10;;;7.00;99.90;;;;;;5057749;28;20202;-73
2022/10/07 03:27:08;;;;;;;0.10;0.10;;;6.70;99.90;;;;;;5061093;28;20218;-73
2022/10/07 03:29:38;;;;;;;0.10;0.10;;;6.80;99.90;;;;;;5065001;28;20182;-74
2022/10/07 03:32:09;;;;;;;0.08;0.08;;;6.70;99.90;;;;;;5060635;28;20214;-74
2022/10/07 03:34:37;;;;;;;0.10;0.10;;;6.50;99.90;;;;;;5049816;28;20206;-74
2022/10/07 03:37:07;;;;;;;0.10;0.10;;;6.30;99.90;;;;;;5050161;28;20206;-74
2022/10/07 03:39:35;;;;;;;0.10;0.10;;;6.30;99.90;;;;;;5046904;28;20217;-74
2022/10/07 03:42:04;;;;;;;0.10;0.10;;;6.40;99.90;;;;;;5050194;28;20692;-74
2022/10/07 03:44:34;;;;;;;0.10;0.10;;;6.40;99.90;;;;;;5049181;28;20209;-74
2022/10/07 03:47:03;;;;;;;0.10;0.10;;;6.40;99.90;;;;;;5051788;28;20230;-74
2022/10/07 03:49:38;;;;;;;0.10;0.10;;;6.50;99.90;;;;;;5053210;28;20229;-74
2022/10/07 03:52:06;;;;;;;0.10;0.10;;;6.50;99.90;;;;;;5056339;28;20226;-76
2022/10/07 03:54:34;;;;;;;0.10;0.10;;;6.70;99.90;;;;;;5035130;28;20210;-76
2022/10/07 03:57:48;;;;;;;0.10;0.10;;;6.50;99.90;;;;;;5048515;28;20290;-75
2022/10/07 03:59:52;;;;;;;0.10;0.10;;;6.50;99.90;;;;;;5048856;28;20582;-74
2022/10/07 04:02:22;;;;;;;0.10;0.10;;;6.60;99.90;;;;;;5046163;28;20253;-75
2022/10/07 04:04:52;;;;;;;0.10;0.10;;;6.30;99.90;;;;;;5045302;28;20205;-74
2022/10/07 04:07:21;;;;;;;0.10;0.10;;;6.40;99.90;;;;;;5052665;28;20226;-74
2022/10/07 04:09:50;;;;;;;0.10;0.10;;;6.40;99.90;;;;;;5052516;28;20202;-75
2022/10/07 04:12:19;;;;;;;0.10;0.10;;;6.40;99.90;;;;;;5052364;28;20272;-75
2022/10/07 04:14:47;;;;;;;0.08;0.08;;;6.20;99.90;;;;;;5054253;28;20198;-75
2022/10/07 04:17:17;;;;;;;0.10;0.10;;;6.20;99.90;;;;;;5054675;28;20195;-74
2022/10/07 04:19:46;;;;;;;0.10;0.10;;;6.10;99.90;;;;;;5052788;28;20665;-74
2022/10/07 04:22:15;;;;;;;0.10;0.10;;;5.90;99.90;;;;;;5053374;28;20215;-74
2022/10/07 04:25:32;;;;;;;0.10;0.10;;;6.00;99.90;;;;;;5052658;28;20271;-74
2022/10/07 04:27:32;;;;;;;0.10;0.10;;;6.00;99.90;;;;;;5051991;28;20851;-74
2022/10/07 04:30:18;;;;;;;0.00;0.00;;;6.10;99.90;;;;;;5047421;28;20205;-74
2022/10/07 04:32:48;;;;;;;0.10;0.10;;;6.10;99.90;;;;;;5052759;28;20229;-74
2022/10/07 04:35:17;;;;;;;0.10;0.10;;;6.10;99.90;;;;;;5052697;28;20194;-74
2022/10/07 04:37:49;;;;;;;0.10;0.10;;;6.10;99.90;;;;;;5056098;28;20673;-74
2022/10/07 04:40:18;;;;;;;0.10;0.10;;;6.30;99.90;;;;;;5054216;28;20205;-74
2022/10/07 04:45:34;;;;;;;0.10;0.10;;;6.20;99.90;;;;;;5059609;28;20224;-74
2022/10/07 04:48:04;;;;;;;0.10;0.10;;;6.00;99.90;;;;;;5054829;28;20214;-74
2022/10/07 04:50:37;;;;;;;0.10;0.10;;;5.90;99.90;;;;;;5056201;28;20194;-74
2022/10/07 04:53:09;;;;;;;0.10;0.10;;;5.90;99.90;;;;;;5054185;28;20263;-74
2022/10/07 04:55:39;;;;;;;0.10;0.10;;;6.00;99.90;;;;;;5058217;28;20228;-73
2022/10/07 04:58:08;;;;;;;0.10;0.10;;;5.90;99.90;;;;;;5051445;28;20575;-73
2022/10/07 05:00:41;;;;;;;0.10;0.10;;;5.80;99.90;;;;;;5051307;28;20893;-73
2022/10/07 05:03:10;;;;;;;0.05;0.05;;;5.80;99.90;;;;;;5051446;28;20260;-73
2022/10/07 05:05:40;;;;;;;0.10;0.10;;;5.80;99.90;;;;;;5053099;28;20649;-73
2022/10/07 05:08:11;;;;;;;0.10;0.10;;;5.80;99.90;;;;;;5052236;28;20221;-75
2022/10/07 05:10:40;;;;;;;0.10;0.10;;;5.80;99.90;;;;;;5050831;28;20249;-75
2022/10/07 05:13:11;;;;;;;0.10;0.10;;;5.80;99.90;;;;;;5050642;28;20214;-75
2022/10/07 05:15:48;;;;;;;0.10;0.10;;;5.80;99.90;;;;;;5051630;28;20200;-75
2022/10/07 05:18:17;;;;;;;0.10;0.10;;;6.00;99.90;;;;;;5052174;28;20661;-74
2022/10/07 05:20:46;;;;;;;0.17;0.17;;;6.00;99.90;;;;;;5051812;28;20206;-74
2022/10/07 05:23:17;;;;;;;0.15;0.15;;;5.90;99.90;;;;;;5044689;28;20221;-74
2022/10/07 05:25:46;;;;;;;0.10;0.10;;;6.00;99.90;;;;;;5051499;28;20190;-74
2022/10/07 05:28:15;;;;;;;0.10;0.10;;;5.90;99.90;;;;;;5051760;28;20222;-74
2022/10/07 05:30:43;;;;;;;0.10;0.10;;;5.90;99.90;;;;;;5063123;28;20213;-74
2022/10/07 05:33:11;;;;;;;0.10;0.10;;;5.90;99.90;;;;;;5050481;28;20233;-73
2022/10/07 05:35:45;;;;;;;0.10;0.10;;;5.80;99.90;;;;;;5051297;28;20229;-73
2022/10/07 05:38:13;;;;;;;0.10;0.10;;;5.80;99.90;;;;;;5051612;28;20255;-74
2022/10/07 05:40:43;;;;;;;0.10;0.10;;;6.00;99.90;;;;;;5051172;28;20203;-74
2022/10/07 05:43:12;;;;;;;0.10;0.10;;;5.90;99.90;;;;;;5050852;28;20269;-73
2022/10/07 05:45:41;;;;;;;0.10;0.10;;;5.90;99.90;;;;;;5051198;28;20256;-73
2022/10/07 05:48:09;;;;;;;0.10;0.10;;;5.90;99.90;;;;;;5051241;28;20219;-73
2022/10/07 05:50:38;;;;;;;0.10;0.10;;;5.80;99.90;;;;;;5052257;28;20549;-73
2022/10/07 05:53:07;;;;;;;0.10;0.10;;;5.70;99.90;;;;;;5050918;28;20230;-73
2022/10/07 05:55:40;;;;;;;0.10;0.10;;;5.80;99.90;;;;;;5050617;28;20198;-73
2022/10/07 05:58:10;;;;;;;0.10;0.10;;;5.80;99.90;;;;;;5051382;28;20198;-73
2022/10/07 06:00:41;;;;;;;0.10;0.10;;;5.70;99.90;;;;;;5050004;28;20272;-73
2022/10/07 06:03:09;;;;;;;0.10;0.10;;;5.60;99.90;;;;;;5051512;28;20300;-73
2022/10/07 06:05:37;;;;;;;0.10;0.10;;;5.70;99.90;;;;;;5054338;28;20264;-73
2022/10/07 06:08:05;;;;;;;0.00;0.00;;;5.80;99.90;;;;;;5050840;28;20222;-74
2022/10/07 06:13:23;;;;;;;0.10;0.10;;;5.90;99.90;;;;;;5025661;28;20226;-73
2022/10/07 06:15:52;;;;;;;0.10;0.10;;;6.00;99.90;;;;;;5055532;28;20230;-73
2022/10/07 06:18:20;;;;;;;0.10;0.10;;;6.20;99.90;;;;;;5049912;28;20290;-73
2022/10/07 06:20:54;;;;;;;0.10;0.10;;;6.10;99.90;;;;;;5050518;28;20249;-73
2022/10/07 06:23:23;;;;;;;0.10;0.10;;;6.10;99.90;;;;;;5050427;28;20308;-73
2022/10/07 06:25:55;;;;;;;0.10;0.10;;;6.20;99.90;;;;;;5051210;28;20214;-73
2022/10/07 06:28:25;;;;;;;0.10;0.10;;;6.10;99.90;;;;;;5052303;28;20272;-73
2022/10/07 06:30:54;;;;;;;0.10;0.10;;;6.10;99.90;;;;;;5054628;28;20284;-73
2022/10/07 06:33:22;;;;;;;0.10;0.10;;;6.10;99.90;;;;;;5052999;28;20754;-73
2022/10/07 06:35:55;;;;;;;0.10;0.10;;;6.10;99.90;;;;;;5052982;28;20202;-73
2022/10/07 06:38:31;;;;;;;0.10;0.10;;;6.20;99.90;;;;;;5051313;28;20208;-73
2022/10/07 06:41:00;;;;;;;0.00;0.00;;;6.30;99.90;;;;;;5042851;28;20198;-73
2022/10/07 06:43:33;;;;;;;0.10;0.10;;;6.30;99.90;;;;;;5049385;28;20263;-73
2022/10/07 06:46:06;;;;;;;0.10;0.10;;;6.30;99.90;;;;;;5049766;28;20217;-73
2022/10/07 06:48:35;;;;;;;0.10;0.10;;;6.40;99.90;;;;;;5050848;28;20682;-73
2022/10/07 06:51:03;;;;;;;0.10;0.10;;;6.50;99.90;;;;;;5066450;28;20285;-73
2022/10/07 06:53:33;;;;;;;0.00;0.00;;;6.60;99.90;;;;;;5048913;28;20287;-72
2022/10/07 06:56:02;;;;;;;0.10;0.10;;;6.70;99.90;;;;;;5050311;28;20256;-73
2022/10/07 06:58:35;;;;;;;0.10;0.10;;;6.80;99.90;;;;;;5049281;28;20716;-73
2022/10/07 07:01:05;;;;;;;0.10;0.10;;;6.80;99.90;;;;;;5049783;28;20202;-72
2022/10/07 07:03:33;;;;;;;0.10;0.10;;;7.00;99.90;;;;;;5051299;28;20211;-73
2022/10/07 07:06:02;;;;;;;0.10;0.10;;;6.90;99.90;;;;;;5049472;28;20211;-75
2022/10/07 07:08:34;;;;;;;0.10;0.10;;;7.00;99.90;;;;;;5049191;28;20222;-73
2022/10/07 07:11:34;;;;;;;0.10;0.10;;;7.10;99.90;;;;;;5049745;28;20255;-73
2022/10/07 07:13:58;;;;;;;0.10;0.10;;;7.20;99.90;;;;;;5049248;28;20275;-73
2022/10/07 07:16:27;;;;;;;0.10;0.10;;;7.30;99.90;;;;;;5041033;28;20209;-73
2022/10/07 07:18:57;;;;;;;0.10;0.10;;;7.40;99.90;;;;;;5049931;28;20286;-72
2022/10/07 07:21:27;;;;;;;0.10;0.10;;;7.60;99.90;;;;;;5049797;28;20253;-73
2022/10/07 07:23:56;;;;;;;0.10;0.10;;;7.70;99.90;;;;;;5047886;28;20210;-73
2022/10/07 07:26:26;;;;;;;0.10;0.10;;;7.70;99.90;;;;;;5038814;28;20279;-72
2022/10/07 07:28:57;;;;;;;0.10;0.10;;;7.80;99.90;;;;;;5053352;28;20689;-73
2022/10/07 07:31:31;;;;;;;0.10;0.10;;;7.90;99.90;;;;;;5054040;28;20301;-73
2022/10/07 07:34:02;;;;;;;0.10;0.10;;;8.00;99.90;;;;;;5033935;28;20666;-73
2022/10/07 07:36:32;;;;;;;0.10;0.10;;;8.10;99.90;;;;;;5039559;28;20248;-74
2022/10/07 07:39:03;;;;;;;0.10;0.10;;;8.10;99.90;;;;;;5052104;28;20277;-75
2022/10/07 07:41:33;;;;;;;0.10;0.10;;;8.20;99.90;;;;;;5073431;28;20233;-74
2022/10/07 07:44:03;;;;;;;0.10;0.10;;;8.30;99.90;;;;;;5066659;28;20230;-74
2022/10/07 07:46:37;;;;;;;0.10;0.10;;;8.40;99.90;;;;;;5053015;28;20264;-73
2022/10/07 07:49:06;;;;;;;0.10;0.10;;;8.50;99.90;;;;;;5053640;28;20828;-73
2022/10/07 07:51:34;;;;;;;0.03;0.03;;;8.60;99.90;;;;;;5053576;28;20218;-73
2022/10/07 07:54:03;;;;;;;0.10;0.10;;;8.70;99.90;;;;;;5054726;28;20195;-73
2022/10/07 07:56:31;;;;;;;0.10;0.10;;;8.80;99.90;;;;;;5053204;28;20211;-72
2022/10/07 07:59:00;;;;;;;0.10;0.10;;;8.90;99.90;;;;;;5044977;28;20202;-74
2022/10/07 08:01:30;;;;;;;0.10;0.10;;;9.00;99.90;;;;;;5052593;28;20226;-74
2022/10/07 08:04:00;;;;;;;0.10;0.10;;;9.10;99.90;;;;;;5052620;28;20210;-74
2022/10/07 08:06:30;;;;;;;0.10;0.10;;;9.30;99.90;;;;;;5054015;28;20187;-74
2022/10/07 08:09:00;;;;;;;0.10;0.10;;;9.40;99.90;;;;;;5047218;28;20222;-74
2022/10/07 08:11:31;;;;;;;0.03;0.03;;;9.50;99.90;;;;;;5059009;28;20230;-73
2022/10/07 08:14:02;;;;;;;0.10;0.10;;;9.70;99.90;;;;;;5049444;28;20268;-73
2022/10/07 08:16:33;;;;;;;0.10;0.10;;;9.80;99.90;;;;;;5042280;28;20210;-73
2022/10/07 08:19:03;;;;;;;0.10;0.10;;;9.90;99.90;;;;;;5047200;28;20244;-74
2022/10/07 08:21:32;;;;;;;0.10;0.10;;;10.00;99.90;;;;;;5050209;28;20300;-74
2022/10/07 08:24:02;;;;;;;0.10;0.10;;;10.20;99.90;;;;;;5046674;28;20217;-74
2022/10/07 08:26:36;;;;;;;0.10;0.10;;;10.30;99.90;;;;;;5041528;28;20210;-74
2022/10/07 08:29:07;;;;;;;0.10;0.10;;;10.40;99.90;;;;;;5052258;28;20218;-75
2022/10/07 08:31:34;;;;;;;0.10;0.10;;;10.50;99.90;;;;;;5051401;28;20333;-75
2022/10/07 08:34:05;;;;;;;0.05;0.05;;;10.70;99.90;;;;;;5053600;28;20198;-74
2022/10/07 08:36:33;;;;;;;0.10;0.10;;;10.70;99.90;;;;;;5053016;28;20232;-74
2022/10/07 08:39:01;;;;;;;0.10;0.10;;;10.80;99.90;;;;;;5053413;28;20255;-75
2022/10/07 08:41:45;;;;;;;0.10;0.10;;;10.90;99.90;;;;;;5051798;28;20222;-74
2022/10/07 08:44:23;;;;;;;0.10;0.10;;;11.00;99.90;;;;;;5047776;28;20198;-75
2022/10/07 08:46:56;;;;;;;0.10;0.10;;;11.10;99.90;;;;;;5053885;28;20194;-75
2022/10/07 08:49:35;;;;;;;0.10;0.10;;;11.20;99.90;;;;;;5053632;28;20264;-75
2022/10/07 08:52:14;;;;;;;0.10;0.10;;;11.30;99.90;;;;;;5053044;28;20230;-76
2022/10/07 08:54:42;;;;;;;0.10;0.10;;;11.40;99.90;;;;;;5054288;28;20628;-76
2022/10/07 08:57:21;;;;;;;0.10;0.10;;;11.50;99.90;;;;;;5054198;28;20293;-75
2022/10/07 08:59:55;;;;;;;0.10;0.10;;;11.60;99.90;;;;;;5054884;28;20194;-75
2022/10/07 09:02:29;;;;;;;0.00;0.00;;;11.80;99.90;;;;;;5053248;28;20240;-74
2022/10/07 09:05:10;;;;;;;0.10;0.10;;;11.90;99.90;;;;;;5048230;28;20201;-75
2022/10/07 09:07:46;;;;;;;0.10;0.10;;;12.00;99.90;;;;;;5054582;28;20255;-75
2022/10/07 09:10:28;;;;;;;0.10;0.10;;;12.10;99.90;;;;;;5055441;28;20236;-76
2022/10/07 09:13:01;;;;;;;0.10;0.10;;;12.30;99.90;;;;;;5055256;28;20230;-75
2022/10/07 09:15:38;;;;;;;0.10;0.10;;;12.30;99.90;;;;;;5055933;28;20735;-76
2022/10/07 09:18:13;;;;;;;0.10;0.10;;;12.40;99.90;;;;;;5055544;28;20285;-75
2022/10/07 09:20:46;;;;;;;0.10;0.10;;;12.60;99.90;;;;;;5054827;28;20229;-75
2022/10/07 09:23:15;;;;;;;0.10;0.10;;;12.70;99.90;;;;;;5053038;28;20934;-75
2022/10/07 09:25:43;;;;;;;0.00;0.00;;;12.80;99.90;;;;;;5053002;28;20204;-75
2022/10/07 09:28:14;;;;;;;0.10;0.10;;;12.90;99.90;;;;;;5052055;28;20248;-75
2022/10/07 09:30:43;;;;;;;0.05;0.05;;;13.00;99.90;;;;;;5053260;28;20207;-75
2022/10/07 09:33:16;;;;;;;0.00;0.00;;;13.20;99.90;;;;;;5051835;28;20300;-75
2022/10/07 09:35:54;;;;;;;0.00;0.00;;;13.30;99.90;;;;;;5052472;28;20257;-75
2022/10/07 09:38:34;;;;;;;0.10;0.10;;;13.50;99.90;;;;;;5046310;28;20194;-75
2022/10/07 09:41:18;;;;;;;0.10;0.10;;;13.50;99.90;;;;;;5044019;28;20198;-75
2022/10/07 09:44:02;;;;;;;0.00;0.00;;;13.70;99.90;;;;;;5053169;28;20197;-75
2022/10/07 09:46:45;;;;;;;0.00;0.00;;;13.70;99.90;;;;;;5048507;28;20256;-75
2022/10/07 09:49:38;;;;;;;0.00;0.00;;;13.80;99.90;;;;;;5051051;28;20210;-76
2022/10/07 09:52:16;;;;;;;0.00;0.00;;;13.90;99.90;;;;;;5045404;28;20276;-75
2022/10/07 09:54:46;;;;;;;0.00;0.00;;;14.00;99.90;;;;;;5052721;28;20202;-75
2022/10/07 09:57:26;;;;;;;0.10;0.10;;;14.00;99.90;;;;;;5051994;28;20190;-75
2022/10/07 10:00:17;;;;;;;0.10;0.10;;;14.10;99.90;;;;;;5052586;28;20564;-76
2022/10/07 10:02:48;;;;;;;0.10;0.10;;;14.20;99.90;;;;;;5051030;28;20246;-76
2022/10/07 10:05:25;;;;;;;0.10;0.10;;;14.30;99.90;;;;;;5052218;28;20210;-76
2022/10/07 10:07:57;;;;;;;0.00;0.00;;;14.30;99.90;;;;;;5052139;28;20210;-76
2022/10/07 10:10:27;;;;;;;0.10;0.10;;;14.40;99.90;;;;;;5052090;28;20355;-76
2022/10/07 10:12:56;;;;;;;0.10;0.10;;;14.50;99.90;;;;;;5052184;28;20276;-76
2022/10/07 10:15:38;;;;;;;0.10;0.10;;;14.50;99.90;;;;;;5052034;28;20195;-76
2022/10/07 10:18:36;;;;;;;0.00;0.00;;;14.60;99.90;;;;;;5052774;28;20202;-76
2022/10/07 10:21:26;;;;;;;0.00;0.00;;;14.70;99.90;;;;;;5052288;28;20256;-76
2022/10/07 10:23:57;;;;;;;0.00;0.00;;;14.90;99.90;;;;;;5052225;28;20194;-75
2022/10/07 10:26:36;;;;;;;0.00;0.00;;;15.00;99.90;;;;;;5065712;28;20670;-76
2022/10/07 10:29:31;;;;;;;0.00;0.00;;;15.00;99.90;;;;;;5051981;28;20259;-76
2022/10/07 10:32:15;;;;;;;0.10;0.10;;;15.20;99.90;;;;;;5050219;28;20249;-76
2022/10/07 10:34:53;;;;;;;0.00;0.00;;;15.30;99.90;;;;;;5050374;28;20198;-76
2022/10/07 10:37:22;;;;;;;0.00;0.00;;;15.30;99.90;;;;;;5049288;28;20198;-76
2022/10/07 10:40:02;;;;;;;0.00;0.00;;;15.40;99.90;;;;;;5044531;28;21026;-76
2022/10/07 10:42:43;;;;;;;0.00;0.00;;;15.50;99.90;;;;;;5050407;28;20256;-76
2022/10/07 10:45:31;;;;;;;0.00;0.00;;;15.60;99.90;;;;;;5051225;28;20198;-74
2022/10/07 10:48:16;;;;;;;0.00;0.00;;;15.80;99.90;;;;;;5047872;28;20884;-77
2022/10/07 10:50:53;;;;;;;0.00;0.00;;;15.90;99.90;;;;;;5048979;28;20218;-75
2022/10/07 10:53:33;;;;;;;0.00;0.00;;;16.00;99.90;;;;;;5047844;28;20218;-75
2022/10/07 10:56:19;;;;;;;0.08;0.08;;;16.10;99.90;;;;;;5048956;28;20215;-76
2022/10/07 10:58:58;;;;;;;0.00;0.00;;;16.20;99.90;;;;;;5049753;28;20249;-75
2022/10/07 11:01:34;;;;;;;0.00;0.00;;;16.30;99.90;;;;;;5042209;28;20226;-75
2022/10/07 11:04:24;;;;;;;0.00;0.00;;;16.40;99.90;;;;;;5049221;28;20288;-75
2022/10/07 11:06:58;;;;;;;0.00;0.00;;;16.50;99.90;;;;;;5051228;28;20210;-75
2022/10/07 11:09:33;;;;;;;0.00;0.00;;;16.60;99.90;;;;;;5048193;28;20214;-76
2022/10/07 11:12:05;;;;;;;0.00;0.00;;;16.70;99.90;;;;;;5049804;28;20255;-76
2022/10/07 11:14:49;;;;;;;0.00;0.00;;;16.80;99.90;;;;;;5052401;28;20205;-75
2022/10/07 11:17:29;;;;;;;0.00;0.00;;;16.90;99.90;;;;;;5050311;28;20195;-76
2022/10/07 11:20:03;;;;;;;0.00;0.00;;;17.20;99.90;;;;;;5041377;28;20193;-75
2022/10/07 11:22:37;;;;;;;0.00;0.00;;;17.50;99.90;;;;;;5049435;28;20708;-75
2022/10/07 11:25:17;;;;;;;0.00;0.00;;;17.80;99.90;;;;;;5038837;28;20208;-75
2022/10/07 11:27:50;;;;;;;0.00;0.00;;;18.00;99.90;;;;;;5044970;28;20665;-75
2022/10/07 11:30:21;;;;;;;0.00;0.00;;;18.10;99.90;;;;;;5046098;28;20283;-76
2022/10/07 11:32:55;;;;;;;0.00;0.00;;;18.50;99.90;;;;;;5048768;28;20214;-75
2022/10/07 11:35:29;;;;;;;0.00;0.00;;;18.80;99.90;;;;;;5049825;28;20203;-76
2022/10/07 11:38:03;;;;;;;0.00;0.00;;;18.90;99.90;;;;;;5032352;28;20218;-75
2022/10/07 11:40:34;;;;;;;0.00;0.00;;;19.20;99.90;;;;;;5034007;28;20738;-75
2022/10/07 11:43:08;;;;;;;0.00;0.00;;;19.20;99.90;;;;;;5047376;28;20309;-75
2022/10/07 11:45:41;;;;;;;0.00;0.00;;;19.50;99.90;;;;;;5043199;28;20210;-76
2022/10/07 11:48:17;;;;;;;0.00;0.00;;;19.70;99.90;;;;;;5050629;28;20241;-76
2022/10/07 11:50:53;;;;;;;0.00;0.00;;;19.80;99.90;;;;;;5044068;28;20602;-77
2022/10/07 11:53:25;;;;;;;0.00;0.00;;;19.80;99.90;;;;;;5050398;28;20256;-76
2022/10/07 11:55:59;;;;;;;0.00;0.00;;;20.00;99.90;;;;;;5049345;28;20221;-77
2022/10/07 11:58:31;;;;;;;0.00;0.00;;;19.90;99.90;;;;;;5049552;28;20198;-76
2022/10/07 12:01:38;;;;;;;0.00;0.00;;;19.90;99.90;;;;;;5051607;28;20202;-76
2022/10/07 12:04:23;;;;;;;0.00;0.00;;;20.20;99.90;;;;;;5059591;28;20274;-76
2022/10/07 12:07:29;;;;;;;0.00;0.00;;;20.30;99.90;;;;;;5060124;28;20262;-76
2022/10/07 12:10:25;;;;;;;0.00;0.00;;;20.50;99.90;;;;;;5050721;28;20225;-75
2022/10/07 12:12:57;;;;;;;0.00;0.00;;;20.40;99.90;;;;;;5062698;28;20222;-74
2022/10/07 12:15:30;;;;;;;0.00;0.00;;;20.50;99.90;;;;;;5063992;28;20224;-74
2022/10/07 12:18:25;;;;;;;0.00;0.00;;;20.50;99.90;;;;;;5065604;28;20206;-75
2022/10/07 12:21:14;;;;;;;0.00;0.00;;;20.50;99.90;;;;;;5060791;28;20190;-74
2022/10/07 12:23:43;;;;;;;0.00;0.00;;;20.60;99.90;;;;;;5059360;28;20256;-74
2022/10/07 12:26:50;;;;;;;0.00;0.00;;;20.70;99.90;;;;;;5055558;28;20202;-74
2022/10/07 12:29:50;;;;;;;0.00;0.00;;;20.40;99.90;;;;;;5050193;28;20268;-74
2022/10/07 12:32:56;;;;;;;0.00;0.00;;;20.10;99.90;;;;;;5053580;28;20234;-75
2022/10/07 12:35:58;;;;;;;0.00;0.00;;;20.10;99.90;;;;;;5047352;28;20564;-75
2022/10/07 12:38:27;;;;;;;0.00;0.00;;;20.30;99.90;;;;;;5054462;28;20210;-75
2022/10/07 12:41:05;;;;;;;0.00;0.00;;;20.40;99.90;;;;;;5050957;28;20214;-75
2022/10/07 12:43:47;;;;;;;0.00;0.00;;;20.50;99.90;;;;;;5052431;28;20225;-75
2022/10/07 12:46:19;;;;;;;0.00;0.00;;;20.50;99.90;;;;;;5054232;28;20244;-76
2022/10/07 12:48:53;;;;;;;0.00;0.00;;;20.50;99.90;;;;;;5055552;28;20248;-76
2022/10/07 12:51:26;;;;;;;0.00;0.00;;;20.70;99.90;;;;;;5053430;28;20225;-76
2022/10/07 12:53:57;;;;;;;0.00;0.00;;;20.50;99.90;;;;;;5053864;28;20202;-76
2022/10/07 12:56:28;;;;;;;0.00;0.00;;;20.60;99.90;;;;;;5053835;28;20212;-77
2022/10/07 13:03:07;;;;;;;0.00;0.00;;;20.50;99.90;;;;;;4991448;28;20750;-77
2022/10/07 13:06:16;;;;;;;0.00;0.00;;;20.50;99.90;;;;;;5006473;28;20231;-76
2022/10/07 13:09:12;;;;;;;0.00;0.00;;;20.70;99.90;;;;;;5051918;28;20738;-77
2022/10/07 13:12:17;;;;;;;0.00;0.00;;;20.90;99.90;;;;;;5053370;28;20222;-77
2022/10/07 13:14:55;;;;;;;0.00;0.00;;;20.90;99.90;;;;;;5053314;28;20194;-77
2022/10/07 13:17:44;;;;;;;0.00;0.00;;;20.90;99.90;;;;;;5054043;28;20267;-77
2022/10/07 13:20:38;;;;;;;0.00;0.00;;;20.80;99.90;;;;;;5050231;28;20257;-77
2022/10/07 13:23:13;;;;;;;0.00;0.00;;;20.70;99.90;;;;;;5057170;28;20268;-77
2022/10/07 13:25:51;;;;;;;0.00;0.00;;;20.40;99.90;;;;;;5051467;28;20198;-76
2022/10/07 13:28:22;;;;;;;0.00;0.00;;;20.30;99.90;;;;;;5051236;28;20198;-76
2022/10/07 13:30:52;;;;;;;0.00;0.00;;;20.40;99.90;;;;;;5052323;28;20221;-77
2022/10/07 13:33:26;;;;;;;0.00;0.00;;;20.40;99.90;;;;;;5053992;28;20213;-77
2022/10/07 13:36:15;;;;;;;0.00;0.00;;;20.50;99.90;;;;;;5052664;28;20248;-76
2022/10/07 13:38:45;;;;;;;0.00;0.00;;;20.20;99.90;;;;;;5051508;28;20202;-78